Time;durP1;ratioP1;P1;durP2;ratioP2;P2;SDS_P1;SDS_P2;PMS_P1;PMS_P2;Temp;Humidity;BMP_temperature;BMP_pressure;BME280_temperature;BME280_humidity;BME280_pressure;Samples;Min_cycle;Max_cycle;Signal;HPM_P1;HPM_P2
2024/02/10 00:00:15;;;;;;;15.00;9.53;;;7.70;99.90;;;;;;5011240;28;21092;-58
2024/02/10 00:02:44;;;;;;;15.67;9.73;;;7.70;99.90;;;;;;5009520;28;20439;-58
2024/02/10 00:05:11;;;;;;;15.80;9.90;;;7.60;99.90;;;;;;5009098;28;20460;-57
2024/02/10 00:07:37;;;;;;;20.33;8.10;;;7.60;99.90;;;;;;5009541;28;20496;-58
2024/02/10 00:10:04;;;;;;;12.67;8.70;;;7.60;99.90;;;;;;5009857;28;21032;-58
2024/02/10 00:12:31;;;;;;;12.30;7.70;;;7.60;99.90;;;;;;5007987;28;20271;-58
2024/02/10 00:14:58;;;;;;;16.23;7.97;;;7.50;99.90;;;;;;5005641;28;20521;-58
2024/02/10 00:17:26;;;;;;;16.30;9.10;;;7.50;99.90;;;;;;5005448;28;20427;-59
2024/02/10 00:19:55;;;;;;;13.30;8.10;;;7.50;99.90;;;;;;5010226;28;20563;-58
2024/02/10 00:22:24;;;;;;;16.87;9.30;;;7.50;99.90;;;;;;5009804;28;20415;-58
2024/02/10 00:24:50;;;;;;;10.70;8.53;;;7.40;99.90;;;;;;5008790;28;20789;-59
2024/02/10 00:27:16;;;;;;;16.43;8.97;;;7.40;99.90;;;;;;5008550;28;20961;-57
2024/02/10 00:29:43;;;;;;;14.00;9.10;;;7.40;99.90;;;;;;5009533;28;20258;-58
2024/02/10 00:32:10;;;;;;;15.07;8.33;;;7.40;99.90;;;;;;5010080;28;20904;-58
2024/02/10 00:34:39;;;;;;;12.80;8.30;;;7.40;99.90;;;;;;5006448;28;20849;-60
2024/02/10 00:37:05;;;;;;;16.20;8.53;;;7.50;99.90;;;;;;5009559;28;20411;-59
2024/02/10 00:39:31;;;;;;;14.07;8.53;;;7.40;99.90;;;;;;5006361;28;21210;-58
2024/02/10 00:41:56;;;;;;;14.00;9.50;;;7.40;99.90;;;;;;5009175;28;20435;-59
2024/02/10 00:44:23;;;;;;;27.30;12.67;;;7.50;99.90;;;;;;5009162;28;20180;-59
2024/02/10 00:46:49;;;;;;;22.93;12.60;;;7.50;99.90;;;;;;5004437;28;20173;-58
2024/02/10 00:49:14;;;;;;;24.93;12.53;;;7.50;99.90;;;;;;5009609;28;20438;-58
2024/02/10 00:51:40;;;;;;;21.43;13.33;;;7.50;99.90;;;;;;5007212;28;20251;-61
2024/02/10 00:54:06;;;;;;;24.90;14.23;;;7.50;99.90;;;;;;5009163;28;20244;-59
2024/02/10 00:56:32;;;;;;;21.23;13.43;;;7.50;99.90;;;;;;5008592;28;20177;-58
2024/02/10 00:58:59;;;;;;;22.03;13.23;;;7.50;99.90;;;;;;5009567;28;20930;-59
2024/02/10 01:01:28;;;;;;;18.60;11.10;;;7.50;99.90;;;;;;5006003;28;20542;-59
2024/02/10 01:03:55;;;;;;;19.40;10.47;;;7.50;99.90;;;;;;5006021;28;20432;-59
2024/02/10 01:06:21;;;;;;;19.70;10.47;;;7.50;99.90;;;;;;5008318;28;20481;-59
2024/02/10 01:08:50;;;;;;;19.83;11.87;;;7.50;99.90;;;;;;5006733;28;20512;-59
2024/02/10 01:11:19;;;;;;;21.13;10.90;;;7.40;99.90;;;;;;5011986;28;20481;-60
2024/02/10 01:13:46;;;;;;;18.40;10.80;;;7.40;99.90;;;;;;5009226;28;20612;-59
2024/02/10 01:16:16;;;;;;;17.83;10.73;;;7.40;99.90;;;;;;5011073;28;20422;-59
2024/02/10 01:18:42;;;;;;;14.37;9.00;;;7.40;99.90;;;;;;5004102;28;20431;-59
2024/02/10 01:21:09;;;;;;;13.63;8.50;;;7.40;99.90;;;;;;5008836;28;20514;-58
2024/02/10 01:23:39;;;;;;;16.70;9.10;;;7.40;99.90;;;;;;5007590;28;21119;-59
2024/02/10 01:26:12;;;;;;;17.67;9.57;;;7.40;99.90;;;;;;5007185;28;20419;-58
2024/02/10 01:28:38;;;;;;;17.20;9.10;;;7.40;99.90;;;;;;5007993;28;20499;-59
2024/02/10 01:31:07;;;;;;;12.93;8.80;;;7.40;99.90;;;;;;5005065;28;20437;-58
2024/02/10 01:33:33;;;;;;;18.03;8.67;;;7.40;99.90;;;;;;5007363;28;20470;-58
2024/02/10 01:35:59;;;;;;;21.90;10.30;;;7.30;99.90;;;;;;5004659;28;20438;-57
2024/02/10 01:38:26;;;;;;;16.00;9.67;;;7.30;99.90;;;;;;5008584;28;20415;-59
2024/02/10 01:40:51;;;;;;;14.53;10.03;;;7.30;99.90;;;;;;5005079;28;20200;-57
2024/02/10 01:43:17;;;;;;;18.80;10.13;;;7.40;99.90;;;;;;5008150;28;20423;-55
2024/02/10 01:45:43;;;;;;;17.70;9.63;;;7.40;99.90;;;;;;5006251;28;20184;-59
2024/02/10 01:48:09;;;;;;;18.90;10.50;;;7.40;99.90;;;;;;5007937;28;20423;-59
2024/02/10 01:50:36;;;;;;;26.30;10.30;;;7.30;99.90;;;;;;5007074;28;20601;-58
2024/02/10 01:53:03;;;;;;;17.33;10.40;;;7.30;99.90;;;;;;5005807;28;21167;-58
2024/02/10 01:55:30;;;;;;;18.00;10.77;;;7.30;99.90;;;;;;5008038;28;20415;-58
2024/02/10 01:58:00;;;;;;;21.60;11.90;;;7.30;99.90;;;;;;5007759;28;20438;-58
2024/02/10 02:00:26;;;;;;;18.63;11.77;;;7.30;99.90;;;;;;5005691;28;20515;-59
2024/02/10 02:02:55;;;;;;;20.30;10.70;;;7.20;99.90;;;;;;5008206;28;20899;-58
2024/02/10 02:05:21;;;;;;;16.90;10.53;;;7.20;99.90;;;;;;5008792;28;20439;-59
2024/02/10 02:07:48;;;;;;;18.13;10.80;;;7.20;99.90;;;;;;5006560;28;20442;-58
2024/02/10 02:10:14;;;;;;;22.33;10.37;;;7.20;99.90;;;;;;5005422;28;20470;-59
2024/02/10 02:12:48;;;;;;;18.17;10.93;;;7.20;99.90;;;;;;5007842;28;20459;-59
2024/02/10 02:15:14;;;;;;;17.33;10.07;;;7.20;99.90;;;;;;5003921;28;20554;-58
2024/02/10 02:17:40;;;;;;;21.80;9.97;;;7.10;99.90;;;;;;5005886;28;20423;-58
2024/02/10 02:20:07;;;;;;;18.10;10.80;;;7.10;99.90;;;;;;5006841;28;20446;-59
2024/02/10 02:22:33;;;;;;;22.00;10.07;;;7.10;99.90;;;;;;5006879;28;22372;-59
2024/02/10 02:24:58;;;;;;;20.60;10.97;;;7.10;99.90;;;;;;5006097;28;20431;-58
2024/02/10 02:27:24;;;;;;;38.10;18.13;;;7.10;99.90;;;;;;5006833;28;20191;-59
2024/02/10 02:29:50;;;;;;;59.97;20.43;;;7.00;99.90;;;;;;5008238;28;20192;-59
2024/02/10 02:32:16;;;;;;;66.30;20.03;;;7.10;99.90;;;;;;5006528;28;20188;-58
2024/02/10 02:34:42;;;;;;;58.73;19.47;;;7.00;99.90;;;;;;5006820;28;20423;-58
2024/02/10 02:37:08;;;;;;;82.30;16.33;;;7.10;99.90;;;;;;5007441;28;20243;-58
2024/02/10 02:39:35;;;;;;;34.10;12.13;;;7.10;99.90;;;;;;5007457;28;20431;-58
2024/02/10 02:42:05;;;;;;;30.07;11.20;;;7.10;99.90;;;;;;5002680;28;20211;-57
2024/02/10 02:44:31;;;;;;;30.80;12.00;;;7.00;99.90;;;;;;5007188;28;20431;-57
2024/02/10 02:46:59;;;;;;;28.03;12.07;;;7.00;99.90;;;;;;5008037;28;20411;-57
2024/02/10 02:49:24;;;;;;;25.03;12.00;;;7.00;99.90;;;;;;5005391;28;20450;-58
2024/02/10 02:51:51;;;;;;;28.83;12.67;;;6.90;99.90;;;;;;5008702;28;20431;-58
2024/02/10 02:54:18;;;;;;;44.17;13.57;;;6.90;99.90;;;;;;5006445;28;20697;-57
2024/02/10 02:56:45;;;;;;;73.60;14.93;;;6.90;99.90;;;;;;5006038;28;20455;-58
2024/02/10 02:59:13;;;;;;;120.87;16.67;;;6.90;99.90;;;;;;5009769;28;20471;-58
2024/02/10 03:01:40;;;;;;;24.63;12.60;;;6.90;99.90;;;;;;5009075;28;20427;-58
2024/02/10 03:04:06;;;;;;;41.67;13.70;;;6.90;99.90;;;;;;5009514;28;20432;-57
2024/02/10 03:06:32;;;;;;;91.27;13.73;;;6.90;99.90;;;;;;5009092;28;20416;-57
2024/02/10 03:08:58;;;;;;;82.83;14.00;;;6.90;99.90;;;;;;5012324;28;20422;-58
2024/02/10 03:11:26;;;;;;;159.47;18.70;;;6.90;99.90;;;;;;5010998;28;20552;-59
2024/02/10 03:13:52;;;;;;;292.23;19.07;;;6.90;99.90;;;;;;5009905;28;20558;-58
2024/02/10 03:16:19;;;;;;;120.20;17.00;;;6.90;99.90;;;;;;5006932;28;20994;-57
2024/02/10 03:18:46;;;;;;;210.70;19.20;;;6.80;99.90;;;;;;5007069;28;20438;-59
2024/02/10 03:21:13;;;;;;;49.00;10.97;;;6.80;99.90;;;;;;5005772;28;21031;-58
2024/02/10 03:23:39;;;;;;;122.33;15.40;;;6.80;99.90;;;;;;5009101;28;21186;-60
2024/02/10 03:26:05;;;;;;;176.93;15.57;;;6.80;99.90;;;;;;5008249;28;20510;-57
2024/02/10 03:28:33;;;;;;;124.70;14.30;;;6.80;99.90;;;;;;5010182;28;20660;-59
2024/02/10 03:31:02;;;;;;;66.47;10.47;;;6.70;99.90;;;;;;5007242;28;20470;-59
2024/02/10 03:33:31;;;;;;;56.40;11.57;;;6.70;99.90;;;;;;5007990;28;20463;-59
2024/02/10 03:35:57;;;;;;;60.27;9.73;;;6.70;99.90;;;;;;5008118;28;20439;-58
2024/02/10 03:38:23;;;;;;;55.03;9.93;;;6.70;99.90;;;;;;5009808;28;20419;-58
2024/02/10 03:40:49;;;;;;;58.60;12.20;;;6.70;99.90;;;;;;5010198;28;20907;-57
2024/02/10 03:43:14;;;;;;;87.67;14.87;;;6.60;99.90;;;;;;5011646;28;20510;-58
2024/02/10 03:45:40;;;;;;;100.37;12.93;;;6.60;99.90;;;;;;5004446;28;20534;-58
2024/02/10 03:48:09;;;;;;;128.63;12.90;;;6.60;99.90;;;;;;5010449;28;20177;-58
2024/02/10 03:50:35;;;;;;;104.70;13.30;;;6.60;99.90;;;;;;5009228;28;20204;-59
2024/02/10 03:53:01;;;;;;;153.40;15.17;;;6.60;99.90;;;;;;5008849;28;20451;-57
2024/02/10 03:55:29;;;;;;;125.00;12.73;;;6.60;99.90;;;;;;5009960;28;20419;-58
2024/02/10 03:57:59;;;;;;;116.83;12.60;;;6.50;99.90;;;;;;5009872;28;20185;-58
2024/02/10 04:00:25;;;;;;;56.67;9.73;;;6.50;99.90;;;;;;5004084;28;20444;-58
2024/02/10 04:02:52;;;;;;;113.40;12.63;;;6.50;99.90;;;;;;5007650;28;20814;-57
2024/02/10 04:05:18;;;;;;;96.63;11.97;;;6.40;99.90;;;;;;5009873;28;20942;-58
2024/02/10 04:07:49;;;;;;;58.77;9.50;;;6.40;99.90;;;;;;5009340;28;20450;-59
2024/02/10 04:10:18;;;;;;;62.20;9.90;;;6.40;99.90;;;;;;5008461;28;21169;-58
2024/02/10 04:12:46;;;;;;;90.73;11.13;;;6.40;99.90;;;;;;5009815;28;20447;-59
2024/02/10 04:15:12;;;;;;;38.43;9.43;;;6.40;99.90;;;;;;5008613;28;20407;-58
2024/02/10 04:17:55;;;;;;;76.17;10.40;;;6.40;99.90;;;;;;5005585;28;20450;-58
2024/02/10 04:20:23;;;;;;;83.90;10.00;;;6.30;99.90;;;;;;5009177;28;20446;-58
2024/02/10 04:22:49;;;;;;;62.10;9.63;;;6.30;99.90;;;;;;5008343;28;20419;-59
2024/02/10 04:25:15;;;;;;;98.97;10.90;;;6.30;99.90;;;;;;5009652;28;20416;-59
2024/02/10 04:27:41;;;;;;;55.27;9.50;;;6.30;99.90;;;;;;5007782;28;20441;-59
2024/02/10 04:30:08;;;;;;;42.00;11.20;;;6.20;99.90;;;;;;5009618;28;20235;-59
2024/02/10 04:32:35;;;;;;;60.57;11.20;;;6.20;99.90;;;;;;5009371;28;20469;-58
2024/02/10 04:35:01;;;;;;;53.83;8.87;;;6.20;99.90;;;;;;5006482;28;20786;-58
2024/02/10 04:37:27;;;;;;;58.90;9.23;;;6.20;99.90;;;;;;5009810;28;20423;-60
2024/02/10 04:39:53;;;;;;;29.57;8.23;;;6.10;99.90;;;;;;5008231;28;20761;-58
2024/02/10 04:42:19;;;;;;;54.63;8.97;;;6.10;99.90;;;;;;5009706;28;20415;-59
2024/02/10 04:44:48;;;;;;;52.00;10.70;;;6.10;99.90;;;;;;5007550;28;20172;-59
2024/02/10 04:47:15;;;;;;;67.17;9.77;;;6.10;99.90;;;;;;5009061;28;20220;-59
2024/02/10 04:49:41;;;;;;;31.67;8.07;;;6.10;99.90;;;;;;5006329;28;20435;-60
2024/02/10 04:52:06;;;;;;;35.30;7.87;;;6.10;99.90;;;;;;5007096;28;21024;-59
2024/02/10 04:54:32;;;;;;;84.33;9.10;;;6.10;99.90;;;;;;5009284;28;20176;-59
2024/02/10 04:56:58;;;;;;;35.13;7.40;;;6.10;99.90;;;;;;5007556;28;20184;-59
2024/02/10 04:59:27;;;;;;;37.27;8.10;;;6.10;99.90;;;;;;5008027;28;20196;-59
2024/02/10 05:01:55;;;;;;;27.33;7.73;;;6.10;99.90;;;;;;5009542;28;20435;-59
2024/02/10 05:04:20;;;;;;;53.70;8.10;;;6.00;99.90;;;;;;5008212;28;20506;-59
2024/02/10 05:06:46;;;;;;;12.93;7.20;;;6.00;99.90;;;;;;5008613;28;20503;-58
2024/02/10 05:09:16;;;;;;;25.47;6.80;;;6.00;99.90;;;;;;5009274;28;20696;-59
2024/02/10 05:11:42;;;;;;;40.17;8.00;;;5.90;99.90;;;;;;5004636;28;20165;-60
2024/02/10 05:14:08;;;;;;;19.67;6.93;;;5.90;99.90;;;;;;5004783;28;20462;-58
2024/02/10 05:16:34;;;;;;;17.17;6.77;;;5.90;99.90;;;;;;5006715;28;20184;-59
2024/02/10 05:19:00;;;;;;;19.43;6.20;;;5.90;99.90;;;;;;5007012;28;20436;-59
2024/02/10 05:21:27;;;;;;;38.90;7.50;;;5.90;99.90;;;;;;5009719;28;20168;-58
2024/02/10 05:23:54;;;;;;;12.17;6.10;;;5.90;99.90;;;;;;5005113;28;20181;-59
2024/02/10 05:26:19;;;;;;;20.80;6.60;;;5.90;99.90;;;;;;5007785;28;20784;-59
2024/02/10 05:28:47;;;;;;;20.30;6.90;;;5.90;99.90;;;;;;5007364;28;20504;-58
2024/02/10 05:31:13;;;;;;;15.00;7.00;;;5.90;99.90;;;;;;5006895;28;20582;-59
2024/02/10 05:33:43;;;;;;;16.43;7.60;;;5.90;99.90;;;;;;5007385;28;20462;-58
2024/02/10 05:36:10;;;;;;;34.07;8.10;;;5.80;99.90;;;;;;5007676;28;20172;-58
2024/02/10 05:38:38;;;;;;;44.70;8.07;;;5.80;99.90;;;;;;5008818;28;20416;-59
2024/02/10 05:41:04;;;;;;;25.10;7.73;;;5.80;99.90;;;;;;5007474;28;20469;-59
2024/02/10 05:43:32;;;;;;;14.00;7.00;;;5.80;99.90;;;;;;5007922;28;20470;-59
2024/02/10 05:46:04;;;;;;;14.27;6.47;;;5.80;99.90;;;;;;5007413;28;20422;-58
2024/02/10 05:48:30;;;;;;;18.40;7.10;;;5.80;99.90;;;;;;5010955;28;20497;-59
2024/02/10 05:51:02;;;;;;;22.93;7.33;;;5.80;99.90;;;;;;5005570;28;20455;-58
2024/02/10 05:53:27;;;;;;;14.73;7.30;;;5.80;99.90;;;;;;5005916;28;20486;-58
2024/02/10 05:55:54;;;;;;;17.77;7.30;;;5.70;99.90;;;;;;5008328;28;20411;-59
2024/02/10 05:58:23;;;;;;;24.17;7.77;;;5.70;99.90;;;;;;5007397;28;20172;-57
2024/02/10 06:00:51;;;;;;;15.67;7.57;;;5.80;99.90;;;;;;5007900;28;20439;-60
2024/02/10 06:03:17;;;;;;;12.27;7.50;;;5.70;99.90;;;;;;5008153;28;20907;-59
2024/02/10 06:05:43;;;;;;;24.70;7.57;;;5.70;99.90;;;;;;5006177;28;21070;-59
2024/02/10 06:08:12;;;;;;;10.17;7.07;;;5.80;99.90;;;;;;5006621;28;20499;-60
2024/02/10 06:10:39;;;;;;;17.90;9.57;;;5.70;99.90;;;;;;5002904;28;20689;-59
2024/02/10 06:13:05;;;;;;;22.70;8.77;;;5.80;99.90;;;;;;5008610;28;20717;-58
2024/02/10 06:15:30;;;;;;;25.87;8.77;;;5.70;99.90;;;;;;5009555;28;20933;-58
2024/02/10 06:17:57;;;;;;;13.17;8.13;;;5.70;99.90;;;;;;5008364;28;20172;-59
2024/02/10 06:20:23;;;;;;;26.60;7.93;;;5.70;99.90;;;;;;5007858;28;20196;-58
2024/02/10 06:22:52;;;;;;;11.10;7.30;;;5.70;99.90;;;;;;5006972;28;20435;-59
2024/02/10 06:25:22;;;;;;;9.87;6.20;;;5.70;99.90;;;;;;5006102;28;20503;-59
2024/02/10 06:27:51;;;;;;;9.50;6.30;;;5.70;99.90;;;;;;5007797;28;20792;-59
2024/02/10 06:30:17;;;;;;;12.77;6.83;;;5.70;99.90;;;;;;5007988;28;20440;-58
2024/02/10 06:32:45;;;;;;;9.63;6.03;;;5.70;99.90;;;;;;5007862;28;20466;-58
2024/02/10 06:35:12;;;;;;;9.20;5.63;;;5.70;99.90;;;;;;5011036;28;20251;-58
2024/02/10 06:37:40;;;;;;;10.70;6.57;;;5.70;99.90;;;;;;5010705;28;20477;-61
2024/02/10 06:40:08;;;;;;;9.63;5.70;;;5.70;99.90;;;;;;5009902;28;20463;-61
2024/02/10 06:42:35;;;;;;;11.27;6.37;;;5.70;99.90;;;;;;5008528;28;20835;-58
2024/02/10 06:45:08;;;;;;;15.10;7.10;;;5.70;99.90;;;;;;5005424;28;20423;-57
2024/02/10 06:47:37;;;;;;;12.63;6.80;;;5.70;99.90;;;;;;5011145;28;20423;-58
2024/02/10 06:50:03;;;;;;;10.67;6.67;;;5.70;99.90;;;;;;5005904;28;20526;-58
2024/02/10 06:52:34;;;;;;;15.50;7.40;;;5.60;99.90;;;;;;5011190;28;21048;-59
2024/02/10 06:55:00;;;;;;;12.57;6.90;;;5.60;99.90;;;;;;5010515;28;20429;-59
2024/02/10 06:57:27;;;;;;;20.60;7.17;;;5.60;99.90;;;;;;5008102;28;20435;-59
2024/02/10 06:59:53;;;;;;;34.60;9.00;;;5.60;99.90;;;;;;5009414;28;20439;-60
2024/02/10 07:02:19;;;;;;;24.27;9.50;;;5.60;99.90;;;;;;5008473;28;20470;-60
2024/02/10 07:04:52;;;;;;;20.70;8.87;;;5.60;99.90;;;;;;5010418;28;20259;-59
2024/02/10 07:07:21;;;;;;;58.93;10.87;;;5.60;99.90;;;;;;5010507;28;20918;-58
2024/02/10 07:09:47;;;;;;;58.37;11.33;;;5.50;99.90;;;;;;5010197;28;20431;-58
2024/02/10 07:12:12;;;;;;;29.60;10.73;;;5.60;99.90;;;;;;5010216;28;20953;-58
2024/02/10 07:14:38;;;;;;;35.07;10.33;;;5.50;99.90;;;;;;5011832;28;20193;-58
2024/02/10 07:17:04;;;;;;;15.87;9.23;;;5.50;99.90;;;;;;5006326;28;20177;-59
2024/02/10 07:19:35;;;;;;;19.50;8.87;;;5.50;99.90;;;;;;5007217;28;20450;-60
2024/02/10 07:22:01;;;;;;;21.97;10.50;;;5.50;99.90;;;;;;5011236;28;20211;-58
2024/02/10 07:24:27;;;;;;;16.73;9.80;;;5.50;99.90;;;;;;5010406;28;20508;-58
2024/02/10 07:26:56;;;;;;;22.87;8.40;;;5.50;99.90;;;;;;5008132;28;20463;-58
2024/02/10 07:29:23;;;;;;;19.43;9.00;;;5.60;99.90;;;;;;5010943;28;20288;-57
2024/02/10 07:31:50;;;;;;;17.80;9.00;;;5.60;99.90;;;;;;5011241;28;20427;-58
2024/02/10 07:34:17;;;;;;;18.37;8.37;;;5.60;99.90;;;;;;5012053;28;20466;-58
2024/02/10 07:36:43;;;;;;;13.40;8.77;;;5.60;99.90;;;;;;5006367;28;20428;-58
2024/02/10 07:39:09;;;;;;;15.90;8.63;;;5.60;99.90;;;;;;5008609;28;20518;-58
2024/02/10 07:41:38;;;;;;;14.50;8.30;;;5.60;99.90;;;;;;5010392;28;20515;-60
2024/02/10 07:44:07;;;;;;;19.00;10.30;;;5.70;99.90;;;;;;5015233;28;20518;-57
2024/02/10 07:46:34;;;;;;;24.50;13.57;;;5.70;99.90;;;;;;5009168;28;20493;-59
2024/02/10 07:49:04;;;;;;;26.67;15.10;;;5.70;99.90;;;;;;5010477;28;20494;-59
2024/02/10 07:51:30;;;;;;;21.27;11.63;;;5.70;99.90;;;;;;5008265;28;20431;-59
2024/02/10 07:53:59;;;;;;;16.83;10.17;;;5.70;99.90;;;;;;5007957;28;20467;-59
2024/02/10 07:56:33;;;;;;;19.53;11.20;;;5.70;99.90;;;;;;5009663;28;20422;-59
2024/02/10 07:59:00;;;;;;;15.63;9.33;;;5.70;99.90;;;;;;5004846;28;20957;-58
2024/02/10 08:01:26;;;;;;;12.10;7.57;;;5.80;99.90;;;;;;5008104;28;20527;-58
2024/02/10 08:03:54;;;;;;;13.13;8.40;;;5.80;99.90;;;;;;5007702;28;20578;-58
2024/02/10 08:06:32;;;;;;;14.10;8.90;;;5.80;99.90;;;;;;5001310;28;20781;-58
2024/02/10 08:08:58;;;;;;;12.17;7.73;;;5.80;99.90;;;;;;5006639;28;20438;-58
2024/02/10 08:11:27;;;;;;;18.77;10.00;;;5.80;99.90;;;;;;5006967;28;20411;-58
2024/02/10 08:13:57;;;;;;;11.40;7.13;;;5.90;99.90;;;;;;5008302;28;20507;-57
2024/02/10 08:16:30;;;;;;;12.70;6.97;;;5.90;99.90;;;;;;5006628;28;20460;-58
2024/02/10 08:18:56;;;;;;;13.57;7.50;;;5.90;99.90;;;;;;5009744;28;20467;-58
2024/02/10 08:21:24;;;;;;;11.40;7.40;;;5.90;99.90;;;;;;5007776;28;20917;-59
2024/02/10 08:23:52;;;;;;;11.70;7.50;;;5.90;99.90;;;;;;5009216;28;20554;-59
2024/02/10 08:26:20;;;;;;;13.80;8.23;;;5.90;99.90;;;;;;5003850;28;20439;-55
2024/02/10 08:28:48;;;;;;;17.23;8.37;;;5.90;99.90;;;;;;5003737;28;20957;-53
2024/02/10 08:31:18;;;;;;;13.27;7.83;;;5.90;99.90;;;;;;5006647;28;20463;-55
2024/02/10 08:33:48;;;;;;;13.80;7.93;;;6.00;99.90;;;;;;5006417;28;20550;-57
2024/02/10 08:36:17;;;;;;;19.17;11.50;;;6.00;99.90;;;;;;5009086;28;20558;-59
2024/02/10 08:38:43;;;;;;;18.40;10.63;;;6.00;99.90;;;;;;4998990;28;20485;-57
2024/02/10 08:41:09;;;;;;;13.73;8.33;;;6.10;99.90;;;;;;5005829;28;20845;-58
2024/02/10 08:43:38;;;;;;;16.80;8.50;;;6.10;99.90;;;;;;5008807;28;20922;-58
2024/02/10 08:46:06;;;;;;;12.20;8.17;;;6.10;99.90;;;;;;5004187;28;20995;-58
2024/02/10 08:48:31;;;;;;;14.20;8.23;;;6.20;99.90;;;;;;5008743;28;20454;-58
2024/02/10 08:50:57;;;;;;;15.87;9.47;;;6.20;99.90;;;;;;5006995;28;21139;-58
2024/02/10 08:53:23;;;;;;;14.17;8.20;;;6.20;99.90;;;;;;5008305;28;20908;-58
2024/02/10 08:55:50;;;;;;;16.80;8.40;;;6.30;99.90;;;;;;5000972;28;20180;-56
2024/02/10 08:58:17;;;;;;;11.60;7.63;;;6.30;99.90;;;;;;5007933;28;20781;-57
2024/02/10 09:00:45;;;;;;;20.10;8.80;;;6.40;99.90;;;;;;5007878;28;21076;-57
2024/02/10 09:03:14;;;;;;;17.43;8.80;;;6.40;99.90;;;;;;5005302;28;20439;-58
2024/02/10 09:05:40;;;;;;;16.57;8.47;;;6.50;99.90;;;;;;5000958;28;20435;-59
2024/02/10 09:08:07;;;;;;;15.00;7.40;;;6.50;99.90;;;;;;4998730;28;20435;-59
2024/02/10 09:10:33;;;;;;;11.83;7.33;;;6.50;99.90;;;;;;5005989;28;20490;-59
2024/02/10 09:12:59;;;;;;;12.47;7.40;;;6.60;99.90;;;;;;5013449;28;20463;-58
2024/02/10 09:15:25;;;;;;;11.90;6.73;;;6.60;99.90;;;;;;5007209;28;20267;-60
2024/02/10 09:17:51;;;;;;;10.07;6.70;;;6.60;99.90;;;;;;5009276;28;20415;-60
2024/02/10 09:20:17;;;;;;;11.50;6.87;;;6.60;99.90;;;;;;5003471;28;20451;-59
2024/02/10 09:22:45;;;;;;;11.03;6.43;;;6.60;99.90;;;;;;5008611;28;20461;-60
2024/02/10 09:25:11;;;;;;;13.20;7.97;;;6.60;99.90;;;;;;5010826;28;20865;-59
2024/02/10 09:27:37;;;;;;;16.20;8.30;;;6.70;99.90;;;;;;5006697;28;20514;-60
2024/02/10 09:30:04;;;;;;;17.63;10.30;;;6.70;99.90;;;;;;5007696;28;20310;-59
2024/02/10 09:32:29;;;;;;;18.30;9.90;;;6.70;99.90;;;;;;5008347;28;20176;-57
2024/02/10 09:34:55;;;;;;;19.63;10.70;;;6.70;99.90;;;;;;5005371;28;20945;-59
2024/02/10 09:37:21;;;;;;;21.40;9.37;;;6.70;99.90;;;;;;5005367;28;20660;-59
2024/02/10 09:39:47;;;;;;;14.50;9.50;;;6.70;99.90;;;;;;5008116;28;20185;-57
2024/02/10 09:42:22;;;;;;;15.87;8.40;;;6.80;99.90;;;;;;5005395;28;20191;-57
2024/02/10 09:44:49;;;;;;;16.00;9.13;;;6.80;99.90;;;;;;5000273;28;20310;-56
2024/02/10 09:47:16;;;;;;;16.90;9.33;;;6.70;99.90;;;;;;5003401;28;20427;-60
2024/02/10 09:49:42;;;;;;;15.87;9.20;;;6.70;99.90;;;;;;5003749;28;20552;-59
2024/02/10 09:52:09;;;;;;;16.23;10.23;;;6.70;99.90;;;;;;5000439;28;20593;-61
2024/02/10 09:54:36;;;;;;;18.07;10.60;;;6.70;99.90;;;;;;4995769;28;20474;-59
2024/02/10 09:57:03;;;;;;;23.13;13.80;;;6.70;99.90;;;;;;5001192;28;20442;-58
2024/02/10 09:59:28;;;;;;;21.40;13.60;;;6.70;99.90;;;;;;5001356;28;20509;-59
2024/02/10 10:01:56;;;;;;;16.17;10.70;;;6.80;99.90;;;;;;5005955;28;20449;-59
2024/02/10 10:04:22;;;;;;;16.47;9.57;;;6.80;99.90;;;;;;5001373;28;20176;-60
2024/02/10 10:06:48;;;;;;;16.30;8.47;;;6.90;99.90;;;;;;4996171;28;20475;-59
2024/02/10 10:09:17;;;;;;;18.50;9.90;;;6.90;99.90;;;;;;5007332;28;21158;-59
2024/02/10 10:11:44;;;;;;;20.23;12.47;;;6.90;99.90;;;;;;5000501;28;20180;-59
2024/02/10 10:14:13;;;;;;;20.67;12.40;;;6.90;99.90;;;;;;4997941;28;20520;-60
2024/02/10 10:16:40;;;;;;;17.20;9.93;;;7.00;99.90;;;;;;4997979;28;20542;-59
2024/02/10 10:19:07;;;;;;;15.63;9.83;;;7.00;99.90;;;;;;5002746;28;20542;-59
2024/02/10 10:21:32;;;;;;;19.50;12.30;;;7.10;99.90;;;;;;5004817;28;20850;-59
2024/02/10 10:23:58;;;;;;;21.20;12.93;;;7.10;99.90;;;;;;5007408;28;20431;-60
2024/02/10 10:26:25;;;;;;;19.27;12.00;;;7.10;99.90;;;;;;5004971;28;20188;-59
2024/02/10 10:28:51;;;;;;;19.73;12.50;;;7.20;99.90;;;;;;5003355;28;20439;-59
2024/02/10 10:31:17;;;;;;;18.83;12.60;;;7.20;99.90;;;;;;5005278;28;20435;-59
2024/02/10 10:33:48;;;;;;;18.57;11.03;;;7.20;99.90;;;;;;5001967;28;20972;-57
2024/02/10 10:36:18;;;;;;;19.50;10.57;;;7.20;99.90;;;;;;5005594;28;20426;-61
2024/02/10 10:38:44;;;;;;;18.97;10.90;;;7.30;99.90;;;;;;5001026;28;20894;-60
2024/02/10 10:41:12;;;;;;;18.90;11.40;;;7.30;99.90;;;;;;5004755;28;20463;-59
2024/02/10 10:43:43;;;;;;;19.10;11.30;;;7.40;99.90;;;;;;5018639;28;20580;-59
2024/02/10 10:46:16;;;;;;;14.60;10.07;;;7.40;99.90;;;;;;5005259;28;20447;-62
2024/02/10 10:48:45;;;;;;;15.93;9.60;;;7.50;99.90;;;;;;5003258;28;20424;-59
2024/02/10 10:51:16;;;;;;;21.80;10.60;;;7.50;99.90;;;;;;4998292;28;20459;-62
2024/02/10 10:53:45;;;;;;;20.57;12.40;;;7.60;99.90;;;;;;4999956;28;20467;-60
2024/02/10 10:56:14;;;;;;;22.23;12.47;;;7.60;99.90;;;;;;5003834;28;21282;-62
2024/02/10 10:58:50;;;;;;;21.13;11.53;;;7.70;99.90;;;;;;5004940;28;20434;-62
2024/02/10 11:01:16;;;;;;;17.90;10.23;;;7.70;99.90;;;;;;5003575;28;20523;-61
2024/02/10 11:03:42;;;;;;;19.30;11.37;;;7.80;99.90;;;;;;5004518;28;20877;-60
2024/02/10 11:06:12;;;;;;;20.30;11.90;;;7.80;99.90;;;;;;4999666;28;20511;-62
2024/02/10 11:08:42;;;;;;;24.30;13.30;;;7.90;99.90;;;;;;4999614;28;20263;-60
2024/02/10 11:11:08;;;;;;;18.10;11.93;;;7.90;99.90;;;;;;4998582;28;20454;-61
2024/02/10 11:13:35;;;;;;;19.50;12.33;;;8.00;99.90;;;;;;5001013;28;20458;-59
2024/02/10 11:16:14;;;;;;;18.13;10.20;;;8.00;99.90;;;;;;4998931;28;20946;-58
2024/02/10 11:18:45;;;;;;;20.70;10.40;;;8.10;99.90;;;;;;4999652;28;20443;-54
2024/02/10 11:21:19;;;;;;;15.77;10.13;;;8.10;99.90;;;;;;5006824;28;20478;-51
2024/02/10 11:24:05;;;;;;;25.73;11.70;;;8.20;99.90;;;;;;5010789;28;20438;-59
2024/02/10 11:26:33;;;;;;;23.80;10.93;;;8.30;99.90;;;;;;5003514;28;20417;-58
2024/02/10 11:28:58;;;;;;;18.17;10.80;;;8.40;99.90;;;;;;5009374;28;20493;-57
2024/02/10 11:31:25;;;;;;;19.57;10.30;;;8.50;99.90;;;;;;5006603;28;20435;-58
2024/02/10 11:33:51;;;;;;;17.50;9.80;;;8.50;99.90;;;;;;5006999;28;20208;-57
2024/02/10 11:36:19;;;;;;;13.53;9.20;;;8.60;99.90;;;;;;5001401;28;20432;-58
2024/02/10 11:38:45;;;;;;;16.63;10.50;;;8.60;99.90;;;;;;5003102;28;20169;-55
2024/02/10 11:41:12;;;;;;;19.77;11.30;;;8.60;99.90;;;;;;5006857;28;20831;-55
2024/02/10 11:43:38;;;;;;;15.27;8.90;;;8.60;99.90;;;;;;5004870;28;22419;-59
2024/02/10 11:46:03;;;;;;;10.43;7.80;;;8.60;99.90;;;;;;5001779;28;20518;-59
2024/02/10 11:48:30;;;;;;;12.03;7.00;;;8.70;99.90;;;;;;5004012;28;20675;-65
2024/02/10 11:50:59;;;;;;;13.27;6.27;;;8.70;99.90;;;;;;5000805;28;20718;-59
2024/02/10 11:53:25;;;;;;;13.10;6.77;;;8.70;99.90;;;;;;5001774;28;20466;-61
2024/02/10 11:55:50;;;;;;;13.03;6.53;;;8.70;99.90;;;;;;5003335;28;20581;-59
2024/02/10 11:58:18;;;;;;;8.00;5.10;;;8.80;99.90;;;;;;5008742;28;20185;-58
2024/02/10 12:00:47;;;;;;;8.90;4.90;;;8.80;99.90;;;;;;5002775;28;20188;-59
2024/02/10 12:03:18;;;;;;;6.27;4.10;;;8.80;99.90;;;;;;5004288;28;20438;-59
2024/02/10 12:05:46;;;;;;;6.53;4.23;;;8.90;99.90;;;;;;5005191;28;20492;-59
2024/02/10 12:08:12;;;;;;;10.80;4.93;;;8.90;99.90;;;;;;5001396;28;20446;-59
2024/02/10 12:10:38;;;;;;;13.27;4.17;;;8.90;99.90;;;;;;5009140;28;20837;-60
2024/02/10 12:13:09;;;;;;;5.50;3.70;;;9.00;99.90;;;;;;5010553;28;20197;-59
2024/02/10 12:15:37;;;;;;;8.40;5.70;;;9.10;99.90;;;;;;5010258;28;20412;-58
2024/02/10 12:18:03;;;;;;;5.60;4.00;;;9.20;99.90;;;;;;5009648;28;20439;-59
2024/02/10 12:20:30;;;;;;;3.87;3.20;;;9.40;99.90;;;;;;5008687;28;20443;-59
2024/02/10 12:22:56;;;;;;;3.53;2.90;;;9.60;99.90;;;;;;5010994;28;20191;-60
2024/02/10 12:25:22;;;;;;;5.13;3.27;;;9.90;99.90;;;;;;5008777;28;20431;-60
2024/02/10 12:27:51;;;;;;;3.80;3.10;;;10.30;99.90;;;;;;5008059;28;20403;-60
2024/02/10 12:30:18;;;;;;;6.37;2.80;;;10.70;99.90;;;;;;5009786;28;20465;-59
2024/02/10 12:32:44;;;;;;;4.90;2.67;;;11.20;99.90;;;;;;5010070;28;20980;-60
2024/02/10 12:35:16;;;;;;;2.80;2.60;;;11.70;99.90;;;;;;5009391;28;20438;-60
2024/02/10 12:37:46;;;;;;;5.60;3.23;;;12.20;99.90;;;;;;5006437;28;20415;-59
2024/02/10 12:40:13;;;;;;;4.80;2.93;;;12.60;99.90;;;;;;5003550;28;20451;-60
2024/02/10 12:42:42;;;;;;;3.63;2.70;;;12.80;99.90;;;;;;5005980;28;20435;-58